
Distance (Route):
Temperature : -42.1°C
Humidity : 0.2%
Pressure : 0hPa| Receiver | Date | Latitude | Longitude | Direction | Speed | Altitude | Climb | Temperature | Humidity | Pressure | Voltage | Killtimer | Uptime | BKT | XDATA |
|---|---|---|---|---|---|---|---|---|---|---|---|---|---|---|---|
| OM5KV | 2026-09-03 06:45:49 | 43.26827 | 22.31748 | 226° | 40km/h | 30961m | 8.8m/s | -42.1°C | 0.2% | 0hPa | 0V | 00:00:00 | 00:00:00 | 00:00:00 | |
| LZ4TU-5 | 2026-09-03 05:45:43 | 43.27804 | 22.02368 | 76° | 62km/h | 10346m | 4.9m/s | -49.2°C | 0% | 0hPa | 0V | 00:00:00 | 00:00:00 | 00:00:00 | |
| LZ4TU-5 | 2026-09-03 05:45:30 | 43.27736 | 22.02125 | 71° | 64km/h | 10275m | 7.0m/s | -48.6°C | 63.5% | 0hPa | 0V | 00:00:00 | 00:00:00 | 00:00:00 | |
| LZ4TU-5 | 2026-09-03 05:45:19 | 43.27676 | 22.01920 | 73° | 62km/h | 10218m | 5.4m/s | -48.1°C | 62.8% | 0hPa | 0V | 00:00:00 | 00:00:00 | 00:00:00 | |
| LZ4TU-5 | 2026-09-03 05:45:01 | 43.27586 | 22.01588 | 72° | 55km/h | 10130m | 6.2m/s | -47.1°C | 60.1% | 0hPa | 0V | 00:00:00 | 00:00:00 | 00:00:00 | |
| LZ4TU-5 | 2026-09-03 05:44:47 | 43.27512 | 22.01325 | 58° | 84km/h | 10060m | 3.1m/s | -46.5°C | 58.5% | 0hPa | 0V | 00:00:00 | 00:00:00 | 00:00:00 | |
| LZ4TU-5 | 2026-09-03 05:44:41 | 43.27482 | 22.01185 | 96° | 46km/h | 10026m | 7.1m/s | -46.2°C | 58.6% | 0hPa | 0V | 00:00:00 | 00:00:00 | 00:00:00 | |
| LZ4TU-5 | 2026-09-03 05:44:18 | 43.27378 | 22.00766 | 65° | 51km/h | 9900m | 4.7m/s | -45.0°C | 60.4% | 0hPa | 0V | 00:00:00 | 00:00:00 | 00:00:00 | |
| LZ4TU-5 | 2026-09-03 05:43:55 | 43.27276 | 22.00385 | 100° | 27km/h | 9763m | 6.2m/s | -43.9°C | 59.0% | 0hPa | 0V | 00:00:00 | 00:00:00 | 00:00:00 | |
| LZ4TU-5 | 2026-09-03 05:43:50 | 43.27287 | 22.00311 | 88° | 57km/h | 9737m | 6.9m/s | -43.7°C | 58.2% | 0hPa | 0V | 00:00:00 | 00:00:00 | 00:00:00 | |
| LZ4TU-5 | 2026-09-03 05:43:46 | 43.27266 | 22.00240 | 55° | 47km/h | 9712m | 5.1m/s | -43.4°C | 57.2% | 0hPa | 0V | 00:00:00 | 00:00:00 | 00:00:00 | |
| LZ4TU-5 | 2026-09-03 05:43:41 | 43.27248 | 22.00201 | 115° | 22km/h | 9691m | 5.1m/s | -43.2°C | 56.2% | 0hPa | 0V | 00:00:00 | 00:00:00 | 00:00:00 | |
| LZ4TU-5 | 2026-09-03 05:43:30 | 43.27221 | 22.00020 | 108° | 27km/h | 9615m | 6.2m/s | -42.5°C | 56.0% | 0hPa | 0V | 00:00:00 | 00:00:00 | 00:00:00 | |
| LZ4TU-5 | 2026-09-03 05:43:25 | 43.27230 | 21.99965 | 88° | 47km/h | 9591m | 6.6m/s | -42.3°C | 0% | 0hPa | 0V | 00:00:00 | 00:00:00 | 00:00:00 | |
| LZ4TU-5 | 2026-09-03 05:43:20 | 43.27218 | 21.99885 | 97° | 44km/h | 9559m | 5.6m/s | -42.1°C | 57.6% | 0hPa | 0V | 00:00:00 | 00:00:00 | 00:00:00 | |
| LZ4TU-5 | 2026-09-03 05:43:13 | 43.27204 | 21.99792 | 69° | 44km/h | 9523m | 4.6m/s | -41.8°C | 58.4% | 0hPa | 0V | 00:00:00 | 00:00:00 | 00:00:00 | |
| LZ4TU-5 | 2026-09-03 05:41:25 | 43.27204 | 21.98299 | 92° | 49km/h | 8941m | 5.1m/s | -37.1°C | 52.9% | 0hPa | 0V | 00:00:00 | 00:00:00 | 00:00:00 | |
| LZ4TU-5 | 2026-09-03 05:41:21 | 43.27216 | 21.98243 | 118° | 38km/h | 8918m | 6.1m/s | -36.9°C | 52.8% | 0hPa | 0V | 00:00:00 | 00:00:00 | 00:00:00 | |
| LZ4TU-5 | 2026-09-03 05:41:16 | 43.27235 | 21.98183 | 111° | 42km/h | 8894m | 3.5m/s | -36.7°C | 53.3% | 0hPa | 0V | 00:00:00 | 00:00:00 | 00:00:00 | |
| LZ4TU-5 | 2026-09-03 05:39:54 | 43.27518 | 21.97133 | 121° | 33km/h | 8459m | 4.9m/s | -33.4°C | 57.2% | 0hPa | 0V | 00:00:00 | 00:00:00 | 00:00:00 | |
| LZ4TU-5 | 2026-09-03 05:39:49 | 43.27528 | 21.97071 | 100° | 57km/h | 8436m | 4.6m/s | -33.2°C | 57.2% | 0hPa | 0V | 00:00:00 | 00:00:00 | 00:00:00 | |
| LZ4TU-5 | 2026-09-03 05:39:44 | 43.27568 | 21.96982 | 144° | 49km/h | 8416m | 4.8m/s | -33.1°C | 57.4% | 0hPa | 0V | 00:00:00 | 00:00:00 | 00:00:00 | |
| LZ4TU-5 | 2026-09-03 05:38:26 | 43.27860 | 21.96039 | 126° | 42km/h | 8000m | 5.9m/s | -29.8°C | 58.8% | 0hPa | 0V | 00:00:00 | 00:00:00 | 00:00:00 | |
| LZ4TU-5 | 2026-09-03 05:38:21 | 43.27876 | 21.95991 | 101° | 38km/h | 7975m | 5.3m/s | -29.7°C | 59.5% | 0hPa | 0V | 00:00:00 | 00:00:00 | 00:00:00 | |
| LZ4TU-5 | 2026-09-03 05:37:01 | 43.28312 | 21.95004 | 130° | 44km/h | 7563m | 6.7m/s | -27.1°C | 58.4% | 0hPa | 0V | 00:00:00 | 00:00:00 | 00:00:00 | |
| LZ4TU-5 | 2026-09-03 05:36:57 | 43.28341 | 21.94937 | 126° | 58km/h | 7536m | 7.0m/s | -26.8°C | 57.8% | 0hPa | 0V | 00:00:00 | 00:00:00 | 00:00:00 | |
| LZ4TU-5 | 2026-09-03 05:35:43 | 43.28641 | 21.93954 | 107° | 33km/h | 7128m | 7.7m/s | -23.8°C | 49.1% | 0hPa | 0V | 00:00:00 | 00:00:00 | 00:00:00 | |
| LZ4TU-5 | 2026-09-03 05:35:38 | 43.28656 | 21.93923 | 93° | 31km/h | 7099m | 6.5m/s | -23.6°C | 48.6% | 0hPa | 0V | 00:00:00 | 00:00:00 | 00:00:00 | |
| LZ4TU-5 | 2026-09-03 05:34:23 | 43.28862 | 21.93189 | 107° | 47km/h | 6687m | 6.9m/s | -20.3°C | 43.6% | 0hPa | 0V | 00:00:00 | 00:00:00 | 00:00:00 | |
| LZ4TU-5 | 2026-09-03 05:34:18 | 43.28889 | 21.93152 | 122° | 26km/h | 6652m | 7.5m/s | -20.0°C | 43.6% | 0hPa | 0V | 00:00:00 | 00:00:00 | 00:00:00 | |
| LZ4TU-5 | 2026-09-03 05:33:05 | 43.29188 | 21.92575 | 129° | 44km/h | 6229m | 6.6m/s | -16.4°C | 34.7% | 0hPa | 0V | 00:00:00 | 00:00:00 | 00:00:00 | |
| LZ4TU-5 | 2026-09-03 05:33:01 | 43.29214 | 21.92533 | 123° | 27km/h | 6209m | 5.1m/s | -16.3°C | 0% | 0hPa | 0V | 00:00:00 | 00:00:00 | 00:00:00 | |
| LZ4TU-5 | 2026-09-03 05:31:43 | 43.29556 | 21.91975 | 194° | 18km/h | 5784m | 6.2m/s | -13.1°C | 17.0% | 0hPa | 0V | 00:00:00 | 00:00:00 | 00:00:00 | |
| LZ4TU-5 | 2026-09-03 05:31:38 | 43.29566 | 21.91956 | 124° | 37km/h | 5761m | 6.0m/s | -12.9°C | 17.8% | 0hPa | 0V | 00:00:00 | 00:00:00 | 00:00:00 |